• Join FlightAware (Why Join?)
  • Login
  • US Flag 
10:22AM EDT


 

Airport Tracker/Info


-or-


 

Live Flight TrackerFlight Track Log ✈ AWE3921 ✈ 15-Apr-2013 ✈ KROC - KDCA

Flight Track Log - Related Links

Times and Time Zones

All times are in EDT time to prevent confusion due to time zone crossing. See the AWE3921 flight status page for this flight to view local times or setup timezone preferences in your user account.

Time Position Orientation Groundspeed Altitude Reporting Facility
EDT Latitude Longitude Course Direction KTS MPH feet Rate Location/Type
12:01PM 43.1014 -77.6942 192° South 155 178 1,100  Level Cleveland Center
12:02PM 43.0375 -77.7142 193° South 171 197 3,900 2,160 Climbing Cleveland Center
12:03PM 42.9731 -77.7228 186° South 203 234 6,200 2,340 Climbing Cleveland Center
12:04PM 42.7773 -77.7327 192° South  Level FlightAware Approximate
12:04PM 42.9064 -77.7289 184° South 227 261 8,600  Level Cleveland Center
12:05PM 42.6928 -77.7572 192° South  Level FlightAware Approximate
12:05PM 42.8336 -77.7378 185° South 250 288 10,800  Level Cleveland Center
12:06PM 42.6086 -77.7825 192° South  Level FlightAware Approximate
12:06PM 42.7550 -77.7556 189° South 270 311 13,100  Level Cleveland Center
12:07PM 42.6803 -77.7758 191° South 289 333 14,800 1,920 Climbing Cleveland Center
12:08PM 42.5914 -77.7967 190° South 309 356 17,000 1,800 Climbing Cleveland Center
12:09PM 42.5042 -77.8203 191° South 324 373 18,500 1,500 Climbing Cleveland Center
12:10PM 42.4111 -77.8439 191° South 336 387 20,100 1,380 Climbing Cleveland Center
12:11PM 42.3136 -77.8706 191° South 342 394 21,300 1,200 Climbing Cleveland Center
12:12PM 42.2164 -77.8944 190° South 360 414 22,600 840 Climbing Cleveland Center
12:13PM 42.1125 -77.9211 191° South 367 422 23,000 180 Climbing Cleveland Center
12:14PM 42.0028 -77.9481 190° South 389 448 23,000  Level Cleveland Center
12:15PM 41.8950 -77.9750 191° South 400 460 23,000  Level Cleveland Center
12:16PM 41.7892 -78.0014 191° South 400 460 23,000  Level Cleveland Center
12:17PM 41.6856 -78.0278 191° South 395 455 23,000  Level Cleveland Center
12:18PM 41.5819 -78.0542 191° South 389 448 23,000  Level Cleveland Center
12:19PM 41.4989 -78.0728 190° South 386 444 23,000  Level New York Center
12:20PM 41.3953 -78.1000 191° South 386 444 23,000  Level New York Center
12:21PM 41.2936 -78.1250 190° South 381 438 23,000  Level New York Center
12:22PM 41.1889 -78.1331 183° South 376 433 23,000  Level New York Center
12:23PM 41.0858 -78.0806 159° South 369 425 23,000  Level New York Center
12:24PM 40.9828 -78.0281 159° South 380 437 23,000 -600 Level New York Center
12:25PM 40.8828 -77.9572 152° Southeast 395 455 21,900 -1,200 Descending New York Center
12:26PM 40.7931 -77.8544 139° Southeast 412 474 20,700 -1,200 Descending New York Center
12:27PM 40.7017 -77.7464 138° Southeast 428 493 19,500 -1,200 Descending New York Center
12:28PM 40.6108 -77.6606 144° Southeast 427 491 18,300 -780 Descending New York Center
12:29PM 40.5228 -77.5972 151° Southeast 379 436 18,000 -180 Descending New York Center
12:30PM 40.4386 -77.5369 151° Southeast 356 410 18,000  Level New York Center
12:31PM 40.3525 -77.4767 152° Southeast 356 410 18,000  Level New York Center
12:32PM 40.2661 -77.4167 152° Southeast 356 410 18,000  Level New York Center
12:33PM 40.1781 -77.3539 151° Southeast 356 410 18,000  Level New York Center
12:34PM 40.0975 -77.3003 153° Southeast 356 410 18,000  Level New York Center
12:35PM 40.0011 -77.2342 152° Southeast 356 410 18,000  Level New York Center
12:36PM 39.9231 -77.1756 150° Southeast 356 410 18,000  Level New York Center
12:37PM 39.8267 -77.1072 151° Southeast 356 410 18,000 -840 Level New York Center
12:38PM 39.7333 -77.0500 155° Southeast 354 407 16,400 -1,560 Descending Potomac TRACON
12:39PM 39.6500 -77.0000 155° Southeast 337 388 14,900 -1,560 Descending Potomac TRACON
12:40PM 39.5833 -76.9500 150° Southeast 325 374 13,500 -1,500 Descending Potomac TRACON
12:41PM 39.5000 -76.8833 148° Southeast 315 362 12,100 -780 Descending Potomac TRACON
12:42PM 39.4333 -76.8333 150° Southeast 308 354 12,000 -180 Descending Potomac TRACON
12:43PM 39.3500 -76.7833 155° Southeast 314 361 11,800 -780 Descending Potomac TRACON
12:44PM 39.2667 -76.7333 155° Southeast 302 348 10,500 -960 Descending Potomac TRACON
12:45PM 39.2167 -76.6833 142° Southeast 283 326 10,000 -300 Descending Potomac TRACON
12:46PM 39.1333 -76.7000 189° South 280 322 10,000 -420 Level Potomac TRACON
12:47PM 39.1000 -76.7500 229° Southwest 251 289 9,200 -1,020 Descending Potomac TRACON
12:48PM 39.0500 -76.8167 226° Southwest 230 265 8,100 -780 Descending Potomac TRACON
12:49PM 39.0000 -76.8667 218° Southwest 222 255 7,700 -600 Descending Potomac TRACON
12:50PM 38.9667 -76.9167 229° Southwest 230 265 7,000 -660 Descending Potomac TRACON
12:51PM 38.9833 -77.0167 282° West 244 281 6,500 -1,020 Descending Potomac TRACON
12:52PM 39.0167 -77.0833 303° West 245 282 4,900 -1,320 Descending Potomac TRACON
12:53PM 39.0333 -77.1500 288° West 202 232 3,800 -1,080 Descending Potomac TRACON
12:54PM 38.9833 -77.1667 195° South 178 205 2,900 -1,020 Descending Potomac TRACON